createdAt,value
2018-09-29T00:02:41.079Z,79.3
2018-09-29T00:12:40.734Z,79.4
2018-09-29T00:22:40.283Z,79.4
2018-09-29T00:32:39.510Z,79.6
2018-09-29T00:42:40.058Z,79.7
2018-09-29T00:52:39.711Z,79.9
2018-09-29T01:02:38.935Z,80.5
2018-09-29T01:12:38.371Z,80.3
2018-09-29T01:22:37.719Z,80.6
2018-09-29T01:32:37.294Z,81.5
2018-09-29T01:42:36.779Z,81.6
2018-09-29T01:52:35.965Z,81.6
2018-09-29T02:02:35.115Z,82.1
2018-09-29T02:12:34.224Z,82.2
2018-09-29T02:22:33.837Z,81.7
2018-09-29T02:42:36.643Z,82.7
2018-09-29T02:52:36.077Z,82.6
2018-09-29T03:02:35.485Z,82.5
2018-09-29T03:12:35.004Z,82.5
2018-09-29T03:22:34.317Z,82.6
2018-09-29T03:32:36.393Z,82.7
2018-09-29T03:42:38.452Z,82.7
2018-09-29T03:52:37.925Z,82.5
2018-09-29T04:02:37.397Z,82.6
2018-09-29T04:12:37.113Z,83.1
2018-09-29T04:22:36.607Z,83.1
2018-09-29T04:42:41.646Z,83.5
2018-09-29T04:52:41.586Z,83.7
2018-09-29T05:02:41.489Z,83.5
2018-09-29T05:12:43.928Z,83.6
2018-09-29T05:22:46.084Z,83.3
2018-09-29T05:42:47.814Z,83.2
2018-09-29T05:52:51.771Z,81.6
2018-09-29T06:02:52.822Z,79.4
2018-09-29T06:12:52.794Z,77.2
2018-09-29T06:22:52.938Z,74.8
2018-09-29T06:32:52.953Z,72.9
2018-09-29T06:42:53.112Z,72.2
2018-09-29T06:52:53.082Z,70.9
2018-09-29T07:13:01.262Z,68.7
2018-09-29T07:23:00.992Z,67.1
2018-09-29T07:33:00.818Z,65.8
2018-09-29T07:43:00.672Z,64.5
2018-09-29T07:53:00.099Z,64.5
2018-09-29T08:02:59.343Z,64.6
2018-09-29T08:12:58.904Z,64.1
2018-09-29T08:22:58.361Z,64.8
2018-09-29T08:32:58.124Z,64.1
2018-09-29T08:42:57.513Z,64.2
2018-09-29T08:52:57.294Z,64.2
2018-09-29T09:02:56.886Z,62.8
2018-09-29T09:12:56.582Z,61.9
2018-09-29T09:22:56.568Z,61.4
2018-09-29T09:32:57.024Z,61.3
2018-09-29T09:42:58.011Z,60.3
2018-09-29T09:52:57.509Z,59.8
2018-09-29T10:02:56.938Z,59
2018-09-29T10:12:56.366Z,58.5
2018-09-29T10:22:55.933Z,58
2018-09-29T10:32:55.473Z,57.7
2018-09-29T10:42:55.376Z,56.4
2018-09-29T10:52:54.982Z,56.9
2018-09-29T11:13:03.828Z,56.1
2018-09-29T11:23:03.646Z,56
2018-09-29T11:33:03.264Z,55.9
2018-09-29T11:43:03.171Z,55
2018-09-29T11:53:03.098Z,55.4
2018-09-29T12:03:02.852Z,54.3
2018-09-29T12:13:02.205Z,53
2018-09-29T12:23:02.035Z,51.8
2018-09-29T12:33:01.712Z,50.7
2018-09-29T12:43:02.204Z,52
2018-09-29T13:03:12.305Z,53.7
2018-09-29T13:13:13.068Z,53.3
2018-09-29T13:23:13.732Z,53.7
2018-09-29T13:53:29.508Z,54
2018-09-29T14:03:28.858Z,53.5
2018-09-29T14:23:36.497Z,53.3
2018-09-29T14:43:46.217Z,55.1
2018-09-29T14:53:46.009Z,52.7
2018-09-29T15:03:45.370Z,53.9
2018-09-29T15:23:44.733Z,53.8
2018-09-29T15:43:54.983Z,53.3
2018-09-29T15:53:55.150Z,53.5
2018-09-29T16:03:54.453Z,54.1
2018-09-29T16:34:09.971Z,55.5
2018-09-29T16:44:09.419Z,55.8
2018-09-29T16:54:08.760Z,56.7
2018-09-29T17:04:09.936Z,57.3
2018-09-29T17:14:08.996Z,57.9
2018-09-29T17:24:08.745Z,59.1
2018-09-29T17:44:16.854Z,63.6
2018-09-29T18:14:33.307Z,67.3
2018-09-29T18:24:35.106Z,68.2
2018-09-29T18:34:34.593Z,69.3
2018-09-29T18:44:37.022Z,70.4
2018-09-29T19:04:44.434Z,72.6
2018-09-29T19:14:43.750Z,73.3
2018-09-29T19:24:45.231Z,74.1
2018-09-29T19:34:45.081Z,74.5
2018-09-29T19:44:44.570Z,75.1
2018-09-29T19:54:43.806Z,75.3
2018-09-29T20:04:42.894Z,75.9
2018-09-29T20:14:42.293Z,76.6
2018-09-29T20:24:42.605Z,76.8
2018-09-29T20:34:42.008Z,77.9
2018-09-29T20:44:41.671Z,78.1
2018-09-29T20:54:41.050Z,78.1
2018-09-29T21:04:40.392Z,78.9
2018-09-29T21:14:39.826Z,79.1
2018-09-29T21:24:39.377Z,79.1
2018-09-29T21:34:39.163Z,79.4
2018-09-29T21:44:38.456Z,79.4
2018-09-29T21:54:38.346Z,80
2018-09-29T22:04:37.724Z,79.7
2018-09-29T22:14:37.097Z,80.4
2018-09-29T22:24:36.354Z,80.5
2018-09-29T22:34:36.064Z,80.3
2018-09-29T22:44:35.551Z,80.9
2018-09-29T22:54:35.285Z,81.6
2018-09-29T23:04:34.197Z,81.8
2018-09-29T23:14:33.687Z,81.5
2018-09-29T23:24:33.165Z,81.5
2018-09-29T23:34:32.597Z,80.7
2018-09-29T23:44:32.059Z,79.8
2018-09-29T23:54:31.525Z,79.8
